sensor_id;sensor_type;location;lat;lon;timestamp;pressure;altitude;pressure_sealevel;temperature;humidity
71043;BME280;58696;52.134;5.500;2023-02-12T00:01:14;103992.44;;;7.27;88.17
71043;BME280;58696;52.134;5.500;2023-02-12T00:03:44;103985.78;;;7.24;88.17
71043;BME280;58696;52.134;5.500;2023-02-12T00:06:13;103990.13;;;7.22;88.32
71043;BME280;58696;52.134;5.500;2023-02-12T00:08:41;103987.66;;;7.21;88.39
71043;BME280;58696;52.134;5.500;2023-02-12T00:11:10;103989.47;;;7.19;88.20
71043;BME280;58696;52.134;5.500;2023-02-12T00:13:39;103990.31;;;7.19;88.35
71043;BME280;58696;52.134;5.500;2023-02-12T00:16:08;103996.34;;;7.18;88.29
71043;BME280;58696;52.134;5.500;2023-02-12T00:18:35;103987.84;;;7.18;88.45
71043;BME280;58696;52.134;5.500;2023-02-12T00:21:03;103994.66;;;7.17;88.44
71043;BME280;58696;52.134;5.500;2023-02-12T00:23:34;103997.31;;;7.16;88.61
71043;BME280;58696;52.134;5.500;2023-02-12T00:26:05;103998.22;;;7.15;88.58
71043;BME280;58696;52.134;5.500;2023-02-12T00:28:35;103998.38;;;7.11;88.69
71043;BME280;58696;52.134;5.500;2023-02-12T00:33:32;103992.75;;;7.05;88.42
71043;BME280;58696;52.134;5.500;2023-02-12T00:35:59;103993.81;;;7.01;88.95
71043;BME280;58696;52.134;5.500;2023-02-12T00:38:27;104002.34;;;7.01;88.60
71043;BME280;58696;52.134;5.500;2023-02-12T00:40:53;104000.66;;;7.00;88.39
71043;BME280;58696;52.134;5.500;2023-02-12T00:43:20;103992.16;;;7.00;89.16
71043;BME280;58696;52.134;5.500;2023-02-12T00:45:47;103988.97;;;6.96;88.70
71043;BME280;58696;52.134;5.500;2023-02-12T00:48:16;103996.63;;;6.96;88.91
71043;BME280;58696;52.134;5.500;2023-02-12T00:50:45;103995.88;;;6.94;88.85
71043;BME280;58696;52.134;5.500;2023-02-12T00:53:14;103995.03;;;6.94;88.77
71043;BME280;58696;52.134;5.500;2023-02-12T00:55:40;103985.88;;;6.90;89.05
71043;BME280;58696;52.134;5.500;2023-02-12T00:58:11;103995.28;;;6.89;89.05
71043;BME280;58696;52.134;5.500;2023-02-12T01:00:38;103988.69;;;6.85;89.04
71043;BME280;58696;52.134;5.500;2023-02-12T01:03:06;103992.91;;;6.86;88.99
71043;BME280;58696;52.134;5.500;2023-02-12T01:05:34;103994.63;;;6.85;89.04
71043;BME280;58696;52.134;5.500;2023-02-12T01:08:00;103997.19;;;6.85;89.03
71043;BME280;58696;52.134;5.500;2023-02-12T01:10:28;104001.41;;;6.87;89.13
71043;BME280;58696;52.134;5.500;2023-02-12T01:12:55;104000.56;;;6.86;89.18
71043;BME280;58696;52.134;5.500;2023-02-12T01:15:22;104002.22;;;6.87;89.05
71043;BME280;58696;52.134;5.500;2023-02-12T01:17:53;103991.09;;;6.88;89.21
71043;BME280;58696;52.134;5.500;2023-02-12T01:20:22;103996.19;;;6.88;89.40
71043;BME280;58696;52.134;5.500;2023-02-12T01:22:51;103993.53;;;6.90;89.38
71043;BME280;58696;52.134;5.500;2023-02-12T01:25:19;104003.78;;;6.90;89.27
71043;BME280;58696;52.134;5.500;2023-02-12T01:27:46;103999.47;;;6.90;89.19
71043;BME280;58696;52.134;5.500;2023-02-12T01:30:14;103990.13;;;6.91;89.28
71043;BME280;58696;52.134;5.500;2023-02-12T01:32:41;103991.09;;;6.88;89.23
71043;BME280;58696;52.134;5.500;2023-02-12T01:35:12;103992.91;;;6.86;89.13
71043;BME280;58696;52.134;5.500;2023-02-12T01:37:39;103990.34;;;6.86;89.35
71043;BME280;58696;52.134;5.500;2023-02-12T01:40:10;103988.69;;;6.85;89.33
71043;BME280;58696;52.134;5.500;2023-02-12T01:42:40;103989.66;;;6.82;89.06
71043;BME280;58696;52.134;5.500;2023-02-12T01:47:43;103991.63;;;6.77;89.26
71043;BME280;58696;52.134;5.500;2023-02-12T01:50:15;103992.63;;;6.75;89.22
71043;BME280;58696;52.134;5.500;2023-02-12T01:52:47;103987.75;;;6.70;89.34
71043;BME280;58696;52.134;5.500;2023-02-12T01:55:17;103991.28;;;6.68;89.45
71043;BME280;58696;52.134;5.500;2023-02-12T01:57:46;103999.13;;;6.65;89.42
71043;BME280;58696;52.134;5.500;2023-02-12T02:00:17;103999.16;;;6.63;89.69
71043;BME280;58696;52.134;5.500;2023-02-12T02:02:49;103993.50;;;6.58;89.45
71043;BME280;58696;52.134;5.500;2023-02-12T02:05:27;103990.34;;;6.53;89.48
71043;BME280;58696;52.134;5.500;2023-02-12T02:07:56;103989.75;;;6.48;89.35
71043;BME280;58696;52.134;5.500;2023-02-12T02:10:23;103978.03;;;6.44;89.48
71043;BME280;58696;52.134;5.500;2023-02-12T02:12:50;103986.66;;;6.41;89.52
71043;BME280;58696;52.134;5.500;2023-02-12T02:15:56;103991.03;;;6.39;89.53
71043;BME280;58696;52.134;5.500;2023-02-12T02:18:49;103993.75;;;6.36;89.75
71043;BME280;58696;52.134;5.500;2023-02-12T02:24:25;103989.22;;;6.24;89.92
71043;BME280;58696;52.134;5.500;2023-02-12T02:32:35;103985.25;;;6.18;90.18
71043;BME280;58696;52.134;5.500;2023-02-12T02:37:50;103978.06;;;6.09;90.23
71043;BME280;58696;52.134;5.500;2023-02-12T02:40:22;103991.88;;;6.05;90.29
71043;BME280;58696;52.134;5.500;2023-02-12T02:43:10;103982.56;;;6.04;90.48
71043;BME280;58696;52.134;5.500;2023-02-12T02:45:46;103983.59;;;6.00;90.52
71043;BME280;58696;52.134;5.500;2023-02-12T02:48:18;103983.00;;;5.95;90.63
71043;BME280;58696;52.134;5.500;2023-02-12T02:50:50;103982.34;;;5.90;90.67
71043;BME280;58696;52.134;5.500;2023-02-12T02:53:28;103976.50;;;5.88;90.80
71043;BME280;58696;52.134;5.500;2023-02-12T02:55:58;103974.00;;;5.86;91.02
71043;BME280;58696;52.134;5.500;2023-02-12T02:59:23;103966.44;;;5.85;90.91
71043;BME280;58696;52.134;5.500;2023-02-12T03:01:50;103968.25;;;5.83;91.13
71043;BME280;58696;52.134;5.500;2023-02-12T03:04:25;103968.38;;;5.79;91.02
71043;BME280;58696;52.134;5.500;2023-02-12T03:07:05;103965.91;;;5.78;91.26
71043;BME280;58696;52.134;5.500;2023-02-12T03:09:40;103965.09;;;5.77;91.37
71043;BME280;58696;52.134;5.500;2023-02-12T03:12:26;103965.09;;;5.77;91.30
71043;BME280;58696;52.134;5.500;2023-02-12T03:15:01;103962.44;;;5.79;91.33
71043;BME280;58696;52.134;5.500;2023-02-12T03:17:36;103968.47;;;5.78;91.46
71043;BME280;58696;52.134;5.500;2023-02-12T03:20:13;103968.47;;;5.78;91.42
71043;BME280;58696;52.134;5.500;2023-02-12T03:22:47;103956.66;;;5.75;91.29
71043;BME280;58696;52.134;5.500;2023-02-12T03:25:22;103952.47;;;5.74;91.33
71043;BME280;58696;52.134;5.500;2023-02-12T03:27:59;103959.28;;;5.74;91.42
71043;BME280;58696;52.134;5.500;2023-02-12T03:31:02;103966.03;;;5.75;91.37
71043;BME280;58696;52.134;5.500;2023-02-12T03:36:28;103978.88;;;5.73;91.14
71043;BME280;58696;52.134;5.500;2023-02-12T03:39:10;103975.72;;;5.68;90.98
71043;BME280;58696;52.134;5.500;2023-02-12T03:41:46;103971.44;;;5.69;91.06
71043;BME280;58696;52.134;5.500;2023-02-12T03:47:27;103985.03;;;5.69;91.02
71043;BME280;58696;52.134;5.500;2023-02-12T03:52:36;103975.78;;;5.67;90.82
71043;BME280;58696;52.134;5.500;2023-02-12T03:55:03;103973.25;;;5.67;91.30
71043;BME280;58696;52.134;5.500;2023-02-12T03:57:35;103980.81;;;5.68;91.23
71043;BME280;58696;52.134;5.500;2023-02-12T04:00:08;103979.78;;;5.72;91.25
71043;BME280;58696;52.134;5.500;2023-02-12T04:02:35;103981.44;;;5.73;91.42
71043;BME280;58696;52.134;5.500;2023-02-12T04:05:07;103979.78;;;5.72;91.59
71043;BME280;58696;52.134;5.500;2023-02-12T04:07:35;103981.50;;;5.72;91.37
71043;BME280;58696;52.134;5.500;2023-02-12T04:10:02;103982.34;;;5.72;91.47
71043;BME280;58696;52.134;5.500;2023-02-12T04:12:53;103986.44;;;5.75;91.32
71043;BME280;58696;52.134;5.500;2023-02-12T04:15:55;103995.72;;;5.77;91.49
71043;BME280;58696;52.134;5.500;2023-02-12T04:27:14;103998.44;;;5.92;92.00
71043;BME280;58696;52.134;5.500;2023-02-12T04:37:49;104009.59;;;5.89;91.82
71043;BME280;58696;52.134;5.500;2023-02-12T04:40:21;104011.41;;;5.87;91.77
71043;BME280;58696;52.134;5.500;2023-02-12T04:42:50;104004.78;;;5.83;91.83
71043;BME280;58696;52.134;5.500;2023-02-12T04:45:31;104007.47;;;5.80;91.88
71043;BME280;58696;52.134;5.500;2023-02-12T04:48:00;104013.50;;;5.79;91.85
71043;BME280;58696;52.134;5.500;2023-02-12T04:50:39;104011.75;;;5.79;92.22
71043;BME280;58696;52.134;5.500;2023-02-12T04:53:09;104016.56;;;5.86;92.08
71043;BME280;58696;52.134;5.500;2023-02-12T04:55:36;104017.19;;;5.91;92.10
71043;BME280;58696;52.134;5.500;2023-02-12T04:58:04;104016.25;;;5.93;92.27
71043;BME280;58696;52.134;5.500;2023-02-12T05:00:31;104011.06;;;5.95;92.29
71043;BME280;58696;52.134;5.500;2023-02-12T05:03:00;104012.72;;;5.96;92.30
71043;BME280;58696;52.134;5.500;2023-02-12T05:05:26;104017.91;;;5.94;92.10
71043;BME280;58696;52.134;5.500;2023-02-12T05:07:59;104018.66;;;5.96;92.09
71043;BME280;58696;52.134;5.500;2023-02-12T05:10:26;104020.38;;;5.96;92.22
71043;BME280;58696;52.134;5.500;2023-02-12T05:12:53;104025.56;;;5.94;91.97
71043;BME280;58696;52.134;5.500;2023-02-12T05:15:21;104026.53;;;5.92;92.19
71043;BME280;58696;52.134;5.500;2023-02-12T05:17:48;104022.28;;;5.91;92.22
71043;BME280;58696;52.134;5.500;2023-02-12T05:20:17;104019.69;;;5.92;92.08
71043;BME280;58696;52.134;5.500;2023-02-12T05:22:44;104023.91;;;5.93;92.13
71043;BME280;58696;52.134;5.500;2023-02-12T05:25:11;104023.09;;;5.93;92.01
71043;BME280;58696;52.134;5.500;2023-02-12T05:27:38;104022.25;;;5.92;91.99
71043;BME280;58696;52.134;5.500;2023-02-12T05:30:05;104021.41;;;5.92;92.01
71043;BME280;58696;52.134;5.500;2023-02-12T05:32:32;104018.88;;;5.92;92.08
71043;BME280;58696;52.134;5.500;2023-02-12T05:35:00;104023.16;;;5.91;92.01
71043;BME280;58696;52.134;5.500;2023-02-12T05:37:29;104018.88;;;5.92;92.18
71043;BME280;58696;52.134;5.500;2023-02-12T05:39:58;104028.94;;;5.95;92.03
71043;BME280;58696;52.134;5.500;2023-02-12T05:42:25;104030.75;;;5.93;92.13
71043;BME280;58696;52.134;5.500;2023-02-12T05:44:52;104029.03;;;5.93;92.24
71043;BME280;58696;52.134;5.500;2023-02-12T05:47:18;104024.91;;;5.89;92.21
71043;BME280;58696;52.134;5.500;2023-02-12T05:49:45;104025.88;;;5.87;92.13
71043;BME280;58696;52.134;5.500;2023-02-12T05:52:12;104026.03;;;5.84;92.08
71043;BME280;58696;52.134;5.500;2023-02-12T05:54:43;104035.34;;;5.85;92.31
71043;BME280;58696;52.134;5.500;2023-02-12T05:57:11;104025.88;;;5.87;92.36
71043;BME280;58696;52.134;5.500;2023-02-12T05:59:38;104034.19;;;5.92;92.39
71043;BME280;58696;52.134;5.500;2023-02-12T06:02:04;104034.13;;;5.93;92.24
71043;BME280;58696;52.134;5.500;2023-02-12T06:04:31;104029.69;;;5.97;92.22
71043;BME280;58696;52.134;5.500;2023-02-12T06:06:58;104037.41;;;5.95;92.35
71043;BME280;58696;52.134;5.500;2023-02-12T06:09:27;104029.75;;;5.95;92.53
71043;BME280;58696;52.134;5.500;2023-02-12T06:11:54;104033.06;;;5.97;92.31
71043;BME280;58696;52.134;5.500;2023-02-12T06:14:23;104033.88;;;5.98;92.64
71043;BME280;58696;52.134;5.500;2023-02-12T06:16:50;104034.66;;;6.00;92.50
71043;BME280;58696;52.134;5.500;2023-02-12T06:19:19;104030.28;;;6.02;92.35
71043;BME280;58696;52.134;5.500;2023-02-12T06:21:47;104038.78;;;6.02;92.42
71043;BME280;58696;52.134;5.500;2023-02-12T06:24:15;104038.72;;;6.04;92.42
71043;BME280;58696;52.134;5.500;2023-02-12T06:26:43;104034.38;;;6.06;92.38
71043;BME280;58696;52.134;5.500;2023-02-12T06:29:10;104033.53;;;6.05;92.50
71043;BME280;58696;52.134;5.500;2023-02-12T06:31:38;104026.63;;;6.07;92.57
71043;BME280;58696;52.134;5.500;2023-02-12T06:34:09;104028.25;;;6.09;92.48
71043;BME280;58696;52.134;5.500;2023-02-12T06:36:39;104033.31;;;6.10;92.37
71043;BME280;58696;52.134;5.500;2023-02-12T06:39:07;104033.38;;;6.09;92.45
71043;BME280;58696;52.134;5.500;2023-02-12T06:41:36;104039.34;;;6.09;92.45
71043;BME280;58696;52.134;5.500;2023-02-12T06:44:04;104037.75;;;6.06;92.39
71043;BME280;58696;52.134;5.500;2023-02-12T06:46:31;104035.41;;;6.02;92.38
71043;BME280;58696;52.134;5.500;2023-02-12T06:48:59;104040.59;;;6.00;92.45
71043;BME280;58696;52.134;5.500;2023-02-12T06:51:28;104034.56;;;6.01;92.39
71043;BME280;58696;52.134;5.500;2023-02-12T06:53:55;104047.22;;;6.04;92.46
71043;BME280;58696;52.134;5.500;2023-02-12T06:56:23;104044.66;;;6.04;92.35
71043;BME280;58696;52.134;5.500;2023-02-12T06:58:54;104043.75;;;6.05;92.50
71043;BME280;58696;52.134;5.500;2023-02-12T07:01:24;104047.13;;;6.06;92.37
71043;BME280;58696;52.134;5.500;2023-02-12T07:04:01;104050.41;;;6.08;92.72
71043;BME280;58696;52.134;5.500;2023-02-12T07:06:30;104050.41;;;6.08;92.56
71043;BME280;58696;52.134;5.500;2023-02-12T07:08:56;104062.31;;;6.09;92.56
71043;BME280;58696;52.134;5.500;2023-02-12T07:11:29;104057.13;;;6.11;92.43
71043;BME280;58696;52.134;5.500;2023-02-12T07:13:56;104054.56;;;6.11;92.51
71043;BME280;58696;52.134;5.500;2023-02-12T07:16:23;104058.69;;;6.13;92.35
71043;BME280;58696;52.134;5.500;2023-02-12T07:18:51;104059.50;;;6.14;92.28
71043;BME280;58696;52.134;5.500;2023-02-12T07:21:18;104062.03;;;6.15;92.51
71043;BME280;58696;52.134;5.500;2023-02-12T07:23:51;104064.41;;;6.18;92.09
71043;BME280;58696;52.134;5.500;2023-02-12T07:26:21;104062.53;;;6.22;91.95
71043;BME280;58696;52.134;5.500;2023-02-12T07:28:49;104070.94;;;6.24;91.96
71043;BME280;58696;52.134;5.500;2023-02-12T07:31:21;104072.47;;;6.28;91.89
71043;BME280;58696;52.134;5.500;2023-02-12T07:33:52;104077.56;;;6.28;91.91
71043;BME280;58696;52.134;5.500;2023-02-12T07:36:20;104080.00;;;6.31;91.86
71043;BME280;58696;52.134;5.500;2023-02-12T07:38:46;104089.22;;;6.33;91.76
71043;BME280;58696;52.134;5.500;2023-02-12T07:41:15;104079.75;;;6.36;91.59
71043;BME280;58696;52.134;5.500;2023-02-12T07:43:43;104086.44;;;6.38;91.59
71043;BME280;58696;52.134;5.500;2023-02-12T07:46:13;104082.06;;;6.40;91.44
71043;BME280;58696;52.134;5.500;2023-02-12T07:48:40;104085.31;;;6.44;91.05
71043;BME280;58696;52.134;5.500;2023-02-12T07:51:09;104089.44;;;6.46;91.06
71043;BME280;58696;52.134;5.500;2023-02-12T07:53:36;104086.75;;;6.49;91.03
71043;BME280;58696;52.134;5.500;2023-02-12T07:58:34;104085.63;;;6.55;90.41
71043;BME280;58696;52.134;5.500;2023-02-12T08:01:21;104086.31;;;6.58;90.29
71043;BME280;58696;52.134;5.500;2023-02-12T08:03:49;104086.13;;;6.62;90.12
71043;BME280;58696;52.134;5.500;2023-02-12T08:06:24;104097.06;;;6.65;90.39
71043;BME280;58696;52.134;5.500;2023-02-12T08:08:53;104105.31;;;6.70;90.28
71043;BME280;58696;52.134;5.500;2023-02-12T08:11:20;104101.84;;;6.71;90.25
71043;BME280;58696;52.134;5.500;2023-02-12T08:13:47;104105.22;;;6.72;90.10
71043;BME280;58696;52.134;5.500;2023-02-12T08:16:18;104105.09;;;6.75;90.17
71043;BME280;58696;52.134;5.500;2023-02-12T08:18:45;104103.28;;;6.77;89.98
71043;BME280;58696;52.134;5.500;2023-02-12T08:21:17;104106.66;;;6.77;89.84
71043;BME280;58696;52.134;5.500;2023-02-12T08:23:47;104109.91;;;6.81;89.96
71043;BME280;58696;52.134;5.500;2023-02-12T08:26:18;104110.63;;;6.83;89.78
71043;BME280;58696;52.134;5.500;2023-02-12T08:28:52;104112.47;;;6.81;89.61
71043;BME280;58696;52.134;5.500;2023-02-12T08:31:26;104117.56;;;6.81;89.56
71043;BME280;58696;52.134;5.500;2023-02-12T08:33:54;104119.13;;;6.83;89.34
71043;BME280;58696;52.134;5.500;2023-02-12T08:36:26;104118.16;;;6.86;89.19
71043;BME280;58696;52.134;5.500;2023-02-12T08:38:56;104123.94;;;6.90;89.38
71043;BME280;58696;52.134;5.500;2023-02-12T08:41:26;104133.13;;;6.94;89.40
71043;BME280;58696;52.134;5.500;2023-02-12T08:43:56;104132.16;;;6.96;89.20
71043;BME280;58696;52.134;5.500;2023-02-12T08:46:25;104129.59;;;6.96;89.28
71043;BME280;58696;52.134;5.500;2023-02-12T08:49:01;104142.97;;;7.01;89.21
71043;BME280;58696;52.134;5.500;2023-02-12T08:51:32;104143.72;;;7.03;89.21
71043;BME280;58696;52.134;5.500;2023-02-12T08:54:03;104143.53;;;7.06;89.14
71043;BME280;58696;52.134;5.500;2023-02-12T08:56:34;104146.09;;;7.06;89.30
71043;BME280;58696;52.134;5.500;2023-02-12T08:59:03;104149.50;;;7.07;89.46
71043;BME280;58696;52.134;5.500;2023-02-12T09:01:32;104142.50;;;7.10;89.60
71043;BME280;58696;52.134;5.500;2023-02-12T09:04:00;104140.63;;;7.14;89.55
71043;BME280;58696;52.134;5.500;2023-02-12T09:06:30;104143.91;;;7.16;89.83
71043;BME280;58696;52.134;5.500;2023-02-12T09:08:57;104148.97;;;7.18;89.70
71043;BME280;58696;52.134;5.500;2023-02-12T09:11:28;104145.50;;;7.19;89.69
71043;BME280;58696;52.134;5.500;2023-02-12T09:14:04;104143.69;;;7.21;89.60
71043;BME280;58696;52.134;5.500;2023-02-12T09:16:34;104140.91;;;7.25;89.53
71043;BME280;58696;52.134;5.500;2023-02-12T09:19:06;104141.63;;;7.27;89.35
71043;BME280;58696;52.134;5.500;2023-02-12T09:21:33;104144.97;;;7.29;89.22
71043;BME280;58696;52.134;5.500;2023-02-12T09:24:01;104154.28;;;7.30;89.10
71043;BME280;58696;52.134;5.500;2023-02-12T09:26:30;104153.47;;;7.30;88.64
71043;BME280;58696;52.134;5.500;2023-02-12T09:28:57;104153.28;;;7.33;88.41
71043;BME280;58696;52.134;5.500;2023-02-12T09:31:29;104150.66;;;7.34;88.30
71043;BME280;58696;52.134;5.500;2023-02-12T09:34:01;104150.41;;;7.39;88.13
71043;BME280;58696;52.134;5.500;2023-02-12T09:36:29;104154.56;;;7.42;87.85
71043;BME280;58696;52.134;5.500;2023-02-12T09:38:56;104155.28;;;7.44;87.84
71043;BME280;58696;52.134;5.500;2023-02-12T09:41:51;104156.78;;;7.48;87.78
71043;BME280;58696;52.134;5.500;2023-02-12T09:44:39;104154.00;;;7.52;87.66
71043;BME280;58696;52.134;5.500;2023-02-12T09:52:32;104147.00;;;7.56;87.46
71043;BME280;58696;52.134;5.500;2023-02-12T09:55:02;104153.59;;;7.60;87.37
71043;BME280;58696;52.134;5.500;2023-02-12T09:57:34;104152.53;;;7.64;87.16
71043;BME280;58696;52.134;5.500;2023-02-12T10:00:13;104153.19;;;7.68;86.97
71043;BME280;58696;52.134;5.500;2023-02-12T10:02:42;104154.75;;;7.70;86.95
71043;BME280;58696;52.134;5.500;2023-02-12T10:05:18;104163.25;;;7.71;86.62
71043;BME280;58696;52.134;5.500;2023-02-12T10:08:09;104148.81;;;7.70;86.42
71043;BME280;58696;52.134;5.500;2023-02-12T10:13:35;104141.03;;;7.71;86.33
71043;BME280;58696;52.134;5.500;2023-02-12T10:27:02;104143.84;;;7.82;86.04
71043;BME280;58696;52.134;5.500;2023-02-12T10:29:37;104147.81;;;7.88;86.44
71043;BME280;58696;52.134;5.500;2023-02-12T10:32:23;104153.84;;;7.87;86.03
71043;BME280;58696;52.134;5.500;2023-02-12T10:34:51;104146.94;;;7.89;85.79
71043;BME280;58696;52.134;5.500;2023-02-12T10:40:31;104156.03;;;7.95;85.71
71043;BME280;58696;52.134;5.500;2023-02-12T10:43:01;104151.72;;;7.95;85.44
71043;BME280;58696;52.134;5.500;2023-02-12T10:45:37;104152.56;;;7.96;85.32
71043;BME280;58696;52.134;5.500;2023-02-12T10:53:31;104153.28;;;7.98;85.25
71043;BME280;58696;52.134;5.500;2023-02-12T11:01:34;104149.66;;;8.02;85.03
71043;BME280;58696;52.134;5.500;2023-02-12T11:04:27;104152.94;;;8.04;84.75
71043;BME280;58696;52.134;5.500;2023-02-12T11:07:00;104152.88;;;8.05;84.28
71043;BME280;58696;52.134;5.500;2023-02-12T11:09:40;104147.66;;;8.07;84.14
71043;BME280;58696;52.134;5.500;2023-02-12T11:12:35;104150.97;;;8.09;84.06
71043;BME280;58696;52.134;5.500;2023-02-12T11:15:09;104152.69;;;8.08;83.88
71043;BME280;58696;52.134;5.500;2023-02-12T11:17:41;104155.94;;;8.12;83.60
71043;BME280;58696;52.134;5.500;2023-02-12T11:20:33;104148.16;;;8.13;83.07
71043;BME280;58696;52.134;5.500;2023-02-12T11:23:05;104141.28;;;8.14;83.16
71043;BME280;58696;52.134;5.500;2023-02-12T11:25:35;104143.03;;;8.13;82.64
71043;BME280;58696;52.134;5.500;2023-02-12T11:28:15;104138.09;;;8.10;82.81
71043;BME280;58696;52.134;5.500;2023-02-12T11:33:28;104136.16;;;8.14;82.81
71043;BME280;58696;52.134;5.500;2023-02-12T11:38:36;104141.22;;;8.15;82.50
71043;BME280;58696;52.134;5.500;2023-02-12T11:46:55;104131.72;;;8.17;82.07
71043;BME280;58696;52.134;5.500;2023-02-12T11:49:32;104133.34;;;8.18;81.91
71043;BME280;58696;52.134;5.500;2023-02-12T11:52:02;104131.63;;;8.19;81.64
71043;BME280;58696;52.134;5.500;2023-02-12T11:54:40;104134.94;;;8.21;81.75
71043;BME280;58696;52.134;5.500;2023-02-12T12:02:48;104130.28;;;8.28;81.45
71043;BME280;58696;52.134;5.500;2023-02-12T12:05:19;104130.34;;;8.26;81.36
71043;BME280;58696;52.134;5.500;2023-02-12T12:07:56;104126.81;;;8.29;81.24
71043;BME280;58696;52.134;5.500;2023-02-12T12:10:34;104126.56;;;8.33;81.36
71043;BME280;58696;52.134;5.500;2023-02-12T12:13:05;104120.63;;;8.33;81.02
71043;BME280;58696;52.134;5.500;2023-02-12T12:15:42;104114.66;;;8.32;80.83
71043;BME280;58696;52.134;5.500;2023-02-12T12:18:36;104102.69;;;8.33;80.64
71043;BME280;58696;52.134;5.500;2023-02-12T12:21:33;104113.75;;;8.33;80.48
71043;BME280;58696;52.134;5.500;2023-02-12T12:24:08;104105.25;;;8.33;80.85
71043;BME280;58696;52.134;5.500;2023-02-12T12:26:39;104100.94;;;8.33;80.66
71043;BME280;58696;52.134;5.500;2023-02-12T12:32:14;104094.75;;;8.37;80.52
71043;BME280;58696;52.134;5.500;2023-02-12T12:34:45;104097.97;;;8.41;80.49
71043;BME280;58696;52.134;5.500;2023-02-12T12:43:06;104096.78;;;8.47;79.85
71043;BME280;58696;52.134;5.500;2023-02-12T13:03:21;104086.47;;;8.48;78.53
71043;BME280;58696;52.134;5.500;2023-02-12T13:06:07;104080.59;;;8.46;78.45
71043;BME280;58696;52.134;5.500;2023-02-12T13:08:51;104071.97;;;8.47;78.34
71043;BME280;58696;52.134;5.500;2023-02-12T13:14:43;104071.97;;;8.47;78.41
71043;BME280;58696;52.134;5.500;2023-02-12T13:26:21;104070.88;;;8.51;77.87
71043;BME280;58696;52.134;5.500;2023-02-12T13:29:43;104063.41;;;8.48;77.66
71043;BME280;58696;52.134;5.500;2023-02-12T13:31:54;104064.28;;;8.47;77.65
71043;BME280;58696;52.134;5.500;2023-02-12T13:34:26;104065.97;;;8.48;77.63
71043;BME280;58696;52.134;5.500;2023-02-12T13:36:56;104059.91;;;8.49;77.48
71043;BME280;58696;52.134;5.500;2023-02-12T13:39:31;104060.72;;;8.50;77.40
71043;BME280;58696;52.134;5.500;2023-02-12T13:55:16;104048.63;;;8.52;77.77
71043;BME280;58696;52.134;5.500;2023-02-12T14:03:25;104046.53;;;8.58;78.67
71043;BME280;58696;52.134;5.500;2023-02-12T14:06:13;104047.28;;;8.60;78.57
71043;BME280;58696;52.134;5.500;2023-02-12T14:08:42;104048.13;;;8.61;78.68
71043;BME280;58696;52.134;5.500;2023-02-12T14:11:15;104047.28;;;8.60;78.69
71043;BME280;58696;52.134;5.500;2023-02-12T14:13:58;104037.31;;;8.56;78.35
71043;BME280;58696;52.134;5.500;2023-02-12T14:24:51;104037.75;;;8.48;78.06
71043;BME280;58696;52.134;5.500;2023-02-12T14:27:29;104028.41;;;8.47;78.14
71043;BME280;58696;52.134;5.500;2023-02-12T14:38:55;104027.59;;;8.31;77.64
71043;BME280;58696;52.134;5.500;2023-02-12T14:40:51;104029.44;;;8.29;77.47
71043;BME280;58696;52.134;5.500;2023-02-12T14:51:37;104020.72;;;8.17;77.23
71043;BME280;58696;52.134;5.500;2023-02-12T14:54:28;104018.25;;;8.15;77.50
71043;BME280;58696;52.134;5.500;2023-02-12T14:57:00;104019.91;;;8.16;78.02
71043;BME280;58696;52.134;5.500;2023-02-12T14:59:31;104021.91;;;8.11;77.99
71043;BME280;58696;52.134;5.500;2023-02-12T15:02:01;104019.50;;;8.08;77.11
71043;BME280;58696;52.134;5.500;2023-02-12T15:04:32;104029.03;;;8.06;76.80
71043;BME280;58696;52.134;5.500;2023-02-12T15:07:05;104025.53;;;8.07;77.09
71043;BME280;58696;52.134;5.500;2023-02-12T15:09:46;104029.03;;;8.06;77.49
71043;BME280;58696;52.134;5.500;2023-02-12T15:12:18;104029.84;;;8.07;77.80
71043;BME280;58696;52.134;5.500;2023-02-12T15:14:50;104025.06;;;8.01;77.83
71043;BME280;58696;52.134;5.500;2023-02-12T15:17:24;104024.41;;;7.97;77.79
71043;BME280;58696;52.134;5.500;2023-02-12T15:20:00;104031.41;;;7.94;78.06
71043;BME280;58696;52.134;5.500;2023-02-12T15:22:36;104024.59;;;7.94;77.90
71043;BME280;58696;52.134;5.500;2023-02-12T15:25:26;104020.28;;;7.95;78.25
71043;BME280;58696;52.134;5.500;2023-02-12T15:27:58;104023.94;;;7.90;77.82
71043;BME280;58696;52.134;5.500;2023-02-12T15:30:33;104016.34;;;7.89;77.58
71043;BME280;58696;52.134;5.500;2023-02-12T15:33:03;104019.78;;;7.88;77.48
71043;BME280;58696;52.134;5.500;2023-02-12T15:35:36;104024.19;;;7.86;77.12
71043;BME280;58696;52.134;5.500;2023-02-12T15:38:18;104019.97;;;7.85;76.95
71043;BME280;58696;52.134;5.500;2023-02-12T15:40:59;104018.34;;;7.84;77.21
71043;BME280;58696;52.134;5.500;2023-02-12T15:43:30;104014.19;;;7.81;77.30
71043;BME280;58696;52.134;5.500;2023-02-12T15:46:02;104014.19;;;7.81;76.68
71043;BME280;58696;52.134;5.500;2023-02-12T15:48:31;104005.69;;;7.81;76.51
71043;BME280;58696;52.134;5.500;2023-02-12T15:51:25;104008.34;;;7.79;76.21
71043;BME280;58696;52.134;5.500;2023-02-12T15:53:55;104002.41;;;7.79;76.29
71043;BME280;58696;52.134;5.500;2023-02-12T15:56:29;104005.88;;;7.78;76.45
71043;BME280;58696;52.134;5.500;2023-02-12T15:58:59;104004.19;;;7.77;76.29
71043;BME280;58696;52.134;5.500;2023-02-12T16:01:29;104003.38;;;7.76;76.14
71043;BME280;58696;52.134;5.500;2023-02-12T16:03:59;104000.81;;;7.76;76.36
71043;BME280;58696;52.134;5.500;2023-02-12T16:06:30;104002.66;;;7.74;76.29
71043;BME280;58696;52.134;5.500;2023-02-12T16:09:06;104006.94;;;7.74;76.57
71043;BME280;58696;52.134;5.500;2023-02-12T16:11:35;104004.38;;;7.74;76.39
71043;BME280;58696;52.134;5.500;2023-02-12T16:14:24;103999.25;;;7.74;76.79
71043;BME280;58696;52.134;5.500;2023-02-12T16:16:55;103999.25;;;7.74;76.84
71043;BME280;58696;52.134;5.500;2023-02-12T16:19:28;104004.47;;;7.72;77.02
71043;BME280;58696;52.134;5.500;2023-02-12T16:22:00;104004.63;;;7.69;77.20
71043;BME280;58696;52.134;5.500;2023-02-12T16:24:31;103999.63;;;7.68;77.20